sensor_id;sensor_type;location;lat;lon;timestamp;P1;durP1;ratioP1;P2;durP2;ratioP2
33654;SDS011;19997;51.274;22.506;2023-04-21T00:00:23;12.38;;;7.32;;
33654;SDS011;19997;51.274;22.506;2023-04-21T00:02:51;11.95;;;7.28;;
33654;SDS011;19997;51.274;22.506;2023-04-21T00:05:19;12.05;;;7.03;;
33654;SDS011;19997;51.274;22.506;2023-04-21T00:07:46;16.45;;;7.35;;
33654;SDS011;19997;51.274;22.506;2023-04-21T00:10:13;14.05;;;6.75;;
33654;SDS011;19997;51.274;22.506;2023-04-21T00:12:40;12.40;;;7.35;;
33654;SDS011;19997;51.274;22.506;2023-04-21T00:15:08;16.00;;;7.00;;
33654;SDS011;19997;51.274;22.506;2023-04-21T00:17:36;16.13;;;6.75;;
33654;SDS011;19997;51.274;22.506;2023-04-21T00:20:05;12.52;;;7.18;;
33654;SDS011;19997;51.274;22.506;2023-04-21T00:22:36;18.25;;;7.65;;
33654;SDS011;19997;51.274;22.506;2023-04-21T00:25:03;12.50;;;7.10;;
33654;SDS011;19997;51.274;22.506;2023-04-21T00:27:31;11.02;;;6.72;;
33654;SDS011;19997;51.274;22.506;2023-04-21T00:29:58;11.00;;;6.95;;
33654;SDS011;19997;51.274;22.506;2023-04-21T00:32:25;12.32;;;7.43;;
33654;SDS011;19997;51.274;22.506;2023-04-21T00:34:52;15.07;;;6.75;;
33654;SDS011;19997;51.274;22.506;2023-04-21T00:37:19;12.57;;;6.85;;
33654;SDS011;19997;51.274;22.506;2023-04-21T00:39:47;13.35;;;7.00;;
33654;SDS011;19997;51.274;22.506;2023-04-21T00:42:15;14.18;;;7.63;;
33654;SDS011;19997;51.274;22.506;2023-04-21T00:44:42;12.07;;;7.38;;
33654;SDS011;19997;51.274;22.506;2023-04-21T00:47:10;11.70;;;7.05;;
33654;SDS011;19997;51.274;22.506;2023-04-21T00:49:37;13.05;;;7.60;;
33654;SDS011;19997;51.274;22.506;2023-04-21T00:52:04;14.80;;;7.97;;
33654;SDS011;19997;51.274;22.506;2023-04-21T00:54:31;12.27;;;6.90;;
33654;SDS011;19997;51.274;22.506;2023-04-21T00:57:02;15.93;;;8.25;;
33654;SDS011;19997;51.274;22.506;2023-04-21T00:59:32;18.38;;;8.20;;
33654;SDS011;19997;51.274;22.506;2023-04-21T01:01:59;14.00;;;7.82;;
33654;SDS011;19997;51.274;22.506;2023-04-21T01:04:26;15.43;;;8.05;;
33654;SDS011;19997;51.274;22.506;2023-04-21T01:06:59;10.50;;;7.43;;
33654;SDS011;19997;51.274;22.506;2023-04-21T01:09:28;17.80;;;8.15;;
33654;SDS011;19997;51.274;22.506;2023-04-21T01:11:59;15.95;;;7.97;;
33654;SDS011;19997;51.274;22.506;2023-04-21T01:14:28;15.93;;;7.82;;
33654;SDS011;19997;51.274;22.506;2023-04-21T01:16:56;21.30;;;8.77;;
33654;SDS011;19997;51.274;22.506;2023-04-21T01:19:23;17.15;;;9.35;;
33654;SDS011;19997;51.274;22.506;2023-04-21T01:21:53;21.48;;;10.38;;
33654;SDS011;19997;51.274;22.506;2023-04-21T01:24:22;13.77;;;8.15;;
33654;SDS011;19997;51.274;22.506;2023-04-21T01:26:50;19.15;;;9.00;;
33654;SDS011;19997;51.274;22.506;2023-04-21T01:29:17;17.25;;;9.90;;
33654;SDS011;19997;51.274;22.506;2023-04-21T01:31:44;18.40;;;8.23;;
33654;SDS011;19997;51.274;22.506;2023-04-21T01:34:12;16.73;;;9.02;;
33654;SDS011;19997;51.274;22.506;2023-04-21T01:36:39;19.83;;;8.60;;
33654;SDS011;19997;51.274;22.506;2023-04-21T01:39:08;15.60;;;8.88;;
33654;SDS011;19997;51.274;22.506;2023-04-21T01:41:35;16.98;;;8.73;;
33654;SDS011;19997;51.274;22.506;2023-04-21T01:44:02;17.48;;;8.07;;
33654;SDS011;19997;51.274;22.506;2023-04-21T01:46:30;14.48;;;9.32;;
33654;SDS011;19997;51.274;22.506;2023-04-21T01:48:57;13.02;;;8.30;;
33654;SDS011;19997;51.274;22.506;2023-04-21T01:51:24;16.77;;;10.15;;
33654;SDS011;19997;51.274;22.506;2023-04-21T01:53:52;14.18;;;8.07;;
33654;SDS011;19997;51.274;22.506;2023-04-21T01:56:20;15.30;;;8.35;;
33654;SDS011;19997;51.274;22.506;2023-04-21T01:58:48;21.52;;;8.68;;
33654;SDS011;19997;51.274;22.506;2023-04-21T02:01:17;19.08;;;8.10;;
33654;SDS011;19997;51.274;22.506;2023-04-21T02:03:44;14.20;;;7.93;;
33654;SDS011;19997;51.274;22.506;2023-04-21T02:06:12;15.80;;;8.43;;
33654;SDS011;19997;51.274;22.506;2023-04-21T02:08:40;15.60;;;8.05;;
33654;SDS011;19997;51.274;22.506;2023-04-21T02:11:07;15.38;;;7.85;;
33654;SDS011;19997;51.274;22.506;2023-04-21T02:13:36;15.57;;;8.98;;
33654;SDS011;19997;51.274;22.506;2023-04-21T02:16:03;12.20;;;7.28;;
33654;SDS011;19997;51.274;22.506;2023-04-21T02:18:30;17.08;;;8.43;;
33654;SDS011;19997;51.274;22.506;2023-04-21T02:20:58;15.40;;;8.15;;
33654;SDS011;19997;51.274;22.506;2023-04-21T02:23:27;19.10;;;8.20;;
33654;SDS011;19997;51.274;22.506;2023-04-21T02:25:54;15.43;;;8.57;;
33654;SDS011;19997;51.274;22.506;2023-04-21T02:28:21;14.05;;;7.60;;
33654;SDS011;19997;51.274;22.506;2023-04-21T02:30:49;14.02;;;8.13;;
33654;SDS011;19997;51.274;22.506;2023-04-21T02:33:17;12.98;;;7.68;;
33654;SDS011;19997;51.274;22.506;2023-04-21T02:35:44;14.57;;;8.18;;
33654;SDS011;19997;51.274;22.506;2023-04-21T02:38:11;14.60;;;7.80;;
33654;SDS011;19997;51.274;22.506;2023-04-21T02:40:40;12.70;;;7.43;;
33654;SDS011;19997;51.274;22.506;2023-04-21T02:43:07;15.43;;;7.25;;
33654;SDS011;19997;51.274;22.506;2023-04-21T02:45:34;16.48;;;7.43;;
33654;SDS011;19997;51.274;22.506;2023-04-21T02:48:04;21.27;;;8.18;;
33654;SDS011;19997;51.274;22.506;2023-04-21T02:50:31;14.00;;;7.13;;
33654;SDS011;19997;51.274;22.506;2023-04-21T02:52:58;13.82;;;7.68;;
33654;SDS011;19997;51.274;22.506;2023-04-21T02:55:25;11.68;;;6.63;;
33654;SDS011;19997;51.274;22.506;2023-04-21T02:57:52;12.63;;;7.20;;
33654;SDS011;19997;51.274;22.506;2023-04-21T03:00:21;13.38;;;7.10;;
33654;SDS011;19997;51.274;22.506;2023-04-21T03:02:49;14.80;;;7.05;;
33654;SDS011;19997;51.274;22.506;2023-04-21T03:05:18;16.08;;;7.63;;
33654;SDS011;19997;51.274;22.506;2023-04-21T03:07:45;14.95;;;6.72;;
33654;SDS011;19997;51.274;22.506;2023-04-21T03:10:12;12.55;;;6.57;;
33654;SDS011;19997;51.274;22.506;2023-04-21T03:12:39;14.13;;;7.35;;
33654;SDS011;19997;51.274;22.506;2023-04-21T03:15:07;13.32;;;7.95;;
33654;SDS011;19997;51.274;22.506;2023-04-21T03:17:35;11.23;;;6.55;;
33654;SDS011;19997;51.274;22.506;2023-04-21T03:20:03;12.95;;;6.82;;
33654;SDS011;19997;51.274;22.506;2023-04-21T03:22:33;10.32;;;6.60;;
33654;SDS011;19997;51.274;22.506;2023-04-21T03:25:00;15.20;;;6.40;;
33654;SDS011;19997;51.274;22.506;2023-04-21T03:27:29;11.90;;;6.93;;
33654;SDS011;19997;51.274;22.506;2023-04-21T03:29:57;11.85;;;6.22;;
33654;SDS011;19997;51.274;22.506;2023-04-21T03:32:24;12.98;;;6.70;;
33654;SDS011;19997;51.274;22.506;2023-04-21T03:34:52;15.35;;;7.07;;
33654;SDS011;19997;51.274;22.506;2023-04-21T03:37:19;18.55;;;7.15;;
33654;SDS011;19997;51.274;22.506;2023-04-21T03:39:48;11.27;;;6.53;;
33654;SDS011;19997;51.274;22.506;2023-04-21T03:42:17;15.88;;;7.47;;
33654;SDS011;19997;51.274;22.506;2023-04-21T03:44:44;11.95;;;6.75;;
33654;SDS011;19997;51.274;22.506;2023-04-21T03:47:11;15.57;;;7.20;;
33654;SDS011;19997;51.274;22.506;2023-04-21T03:49:38;8.73;;;5.85;;
33654;SDS011;19997;51.274;22.506;2023-04-21T03:52:05;12.82;;;6.53;;
33654;SDS011;19997;51.274;22.506;2023-04-21T03:54:32;14.45;;;6.53;;
33654;SDS011;19997;51.274;22.506;2023-04-21T03:57:00;12.10;;;6.18;;
33654;SDS011;19997;51.274;22.506;2023-04-21T03:59:27;12.23;;;6.82;;
33654;SDS011;19997;51.274;22.506;2023-04-21T04:01:55;10.27;;;6.38;;
33654;SDS011;19997;51.274;22.506;2023-04-21T04:04:22;13.18;;;5.85;;
33654;SDS011;19997;51.274;22.506;2023-04-21T04:06:49;11.25;;;6.72;;
33654;SDS011;19997;51.274;22.506;2023-04-21T04:09:16;11.30;;;6.53;;
33654;SDS011;19997;51.274;22.506;2023-04-21T04:11:43;11.00;;;6.22;;
33654;SDS011;19997;51.274;22.506;2023-04-21T04:14:11;9.07;;;5.93;;
33654;SDS011;19997;51.274;22.506;2023-04-21T04:16:38;10.30;;;5.97;;
33654;SDS011;19997;51.274;22.506;2023-04-21T04:19:06;16.02;;;6.72;;
33654;SDS011;19997;51.274;22.506;2023-04-21T04:21:33;11.02;;;5.97;;
33654;SDS011;19997;51.274;22.506;2023-04-21T04:24:01;13.05;;;6.47;;
33654;SDS011;19997;51.274;22.506;2023-04-21T04:26:29;9.32;;;5.35;;
33654;SDS011;19997;51.274;22.506;2023-04-21T04:28:58;10.45;;;5.45;;
33654;SDS011;19997;51.274;22.506;2023-04-21T04:31:28;11.65;;;5.70;;
33654;SDS011;19997;51.274;22.506;2023-04-21T04:33:55;10.73;;;5.78;;
33654;SDS011;19997;51.274;22.506;2023-04-21T04:36:22;15.30;;;6.40;;
33654;SDS011;19997;51.274;22.506;2023-04-21T04:38:51;11.13;;;5.28;;
33654;SDS011;19997;51.274;22.506;2023-04-21T04:41:18;10.38;;;6.00;;
33654;SDS011;19997;51.274;22.506;2023-04-21T04:43:47;11.75;;;6.35;;
33654;SDS011;19997;51.274;22.506;2023-04-21T04:46:14;13.15;;;5.90;;
33654;SDS011;19997;51.274;22.506;2023-04-21T04:48:42;14.15;;;5.80;;
33654;SDS011;19997;51.274;22.506;2023-04-21T04:51:09;17.58;;;5.20;;
33654;SDS011;19997;51.274;22.506;2023-04-21T04:53:37;14.32;;;4.93;;
33654;SDS011;19997;51.274;22.506;2023-04-21T04:56:04;13.55;;;5.78;;
33654;SDS011;19997;51.274;22.506;2023-04-21T04:58:31;8.93;;;5.10;;
33654;SDS011;19997;51.274;22.506;2023-04-21T05:00:58;11.57;;;5.25;;
33654;SDS011;19997;51.274;22.506;2023-04-21T05:03:35;12.32;;;5.93;;
33654;SDS011;19997;51.274;22.506;2023-04-21T05:06:05;11.93;;;5.60;;
33654;SDS011;19997;51.274;22.506;2023-04-21T05:08:32;10.80;;;6.18;;
33654;SDS011;19997;51.274;22.506;2023-04-21T05:10:59;7.45;;;4.72;;
33654;SDS011;19997;51.274;22.506;2023-04-21T05:13:26;11.27;;;5.25;;
33654;SDS011;19997;51.274;22.506;2023-04-21T05:15:56;10.13;;;4.90;;
33654;SDS011;19997;51.274;22.506;2023-04-21T05:18:23;13.77;;;5.20;;
33654;SDS011;19997;51.274;22.506;2023-04-21T05:20:51;11.43;;;5.93;;
33654;SDS011;19997;51.274;22.506;2023-04-21T05:23:19;13.43;;;4.90;;
33654;SDS011;19997;51.274;22.506;2023-04-21T05:25:46;9.93;;;4.20;;
33654;SDS011;19997;51.274;22.506;2023-04-21T05:28:13;6.57;;;4.20;;
33654;SDS011;19997;51.274;22.506;2023-04-21T05:30:40;12.35;;;5.05;;
33654;SDS011;19997;51.274;22.506;2023-04-21T05:33:11;7.80;;;4.68;;
33654;SDS011;19997;51.274;22.506;2023-04-21T05:35:41;15.23;;;5.30;;
33654;SDS011;19997;51.274;22.506;2023-04-21T05:38:08;14.10;;;5.43;;
33654;SDS011;19997;51.274;22.506;2023-04-21T05:40:37;17.00;;;6.32;;
33654;SDS011;19997;51.274;22.506;2023-04-21T05:43:04;12.38;;;4.05;;
33654;SDS011;19997;51.274;22.506;2023-04-21T05:45:31;8.95;;;4.40;;
33654;SDS011;19997;51.274;22.506;2023-04-21T05:47:58;8.25;;;4.40;;
33654;SDS011;19997;51.274;22.506;2023-04-21T05:50:25;10.85;;;5.20;;
33654;SDS011;19997;51.274;22.506;2023-04-21T05:52:58;13.93;;;4.43;;
33654;SDS011;19997;51.274;22.506;2023-04-21T05:55:25;5.50;;;3.55;;
33654;SDS011;19997;51.274;22.506;2023-04-21T05:57:53;7.03;;;3.90;;
33654;SDS011;19997;51.274;22.506;2023-04-21T06:00:21;11.65;;;3.97;;
33654;SDS011;19997;51.274;22.506;2023-04-21T06:02:48;14.52;;;4.32;;
33654;SDS011;19997;51.274;22.506;2023-04-21T06:05:15;8.65;;;3.47;;
33654;SDS011;19997;51.274;22.506;2023-04-21T06:07:42;5.70;;;3.50;;
33654;SDS011;19997;51.274;22.506;2023-04-21T06:10:10;6.50;;;3.75;;
33654;SDS011;19997;51.274;22.506;2023-04-21T06:12:38;8.48;;;3.45;;
33654;SDS011;19997;51.274;22.506;2023-04-21T06:15:07;8.35;;;3.42;;
33654;SDS011;19997;51.274;22.506;2023-04-21T06:17:35;6.03;;;4.22;;
33654;SDS011;19997;51.274;22.506;2023-04-21T06:20:02;7.90;;;3.60;;
33654;SDS011;19997;51.274;22.506;2023-04-21T06:22:30;9.68;;;4.15;;
33654;SDS011;19997;51.274;22.506;2023-04-21T06:24:57;12.60;;;5.38;;
33654;SDS011;19997;51.274;22.506;2023-04-21T06:27:24;12.98;;;4.00;;
33654;SDS011;19997;51.274;22.506;2023-04-21T06:29:54;9.50;;;4.20;;
33654;SDS011;19997;51.274;22.506;2023-04-21T06:32:23;7.85;;;3.78;;
33654;SDS011;19997;51.274;22.506;2023-04-21T06:34:50;5.15;;;3.00;;
33654;SDS011;19997;51.274;22.506;2023-04-21T06:37:17;7.90;;;3.30;;
33654;SDS011;19997;51.274;22.506;2023-04-21T06:39:44;12.52;;;3.75;;
33654;SDS011;19997;51.274;22.506;2023-04-21T06:42:11;9.40;;;3.80;;
33654;SDS011;19997;51.274;22.506;2023-04-21T06:44:41;10.10;;;3.95;;
33654;SDS011;19997;51.274;22.506;2023-04-21T06:47:08;8.20;;;3.78;;
33654;SDS011;19997;51.274;22.506;2023-04-21T06:49:36;12.30;;;3.40;;
33654;SDS011;19997;51.274;22.506;2023-04-21T06:52:04;10.00;;;3.88;;
33654;SDS011;19997;51.274;22.506;2023-04-21T06:54:31;5.20;;;3.42;;
33654;SDS011;19997;51.274;22.506;2023-04-21T06:56:58;8.15;;;3.67;;
33654;SDS011;19997;51.274;22.506;2023-04-21T06:59:26;5.22;;;3.33;;
33654;SDS011;19997;51.274;22.506;2023-04-21T07:01:53;10.73;;;3.45;;
33654;SDS011;19997;51.274;22.506;2023-04-21T07:04:20;7.28;;;3.47;;
33654;SDS011;19997;51.274;22.506;2023-04-21T07:06:49;9.75;;;3.97;;
33654;SDS011;19997;51.274;22.506;2023-04-21T07:09:16;8.45;;;3.83;;
33654;SDS011;19997;51.274;22.506;2023-04-21T07:11:43;8.02;;;3.72;;
33654;SDS011;19997;51.274;22.506;2023-04-21T07:14:10;6.82;;;3.92;;
33654;SDS011;19997;51.274;22.506;2023-04-21T07:16:37;13.20;;;4.28;;
33654;SDS011;19997;51.274;22.506;2023-04-21T07:19:04;6.78;;;3.60;;
33654;SDS011;19997;51.274;22.506;2023-04-21T07:21:31;13.93;;;4.22;;
33654;SDS011;19997;51.274;22.506;2023-04-21T07:24:02;8.23;;;4.07;;
33654;SDS011;19997;51.274;22.506;2023-04-21T07:26:29;10.27;;;3.47;;
33654;SDS011;19997;51.274;22.506;2023-04-21T07:28:58;8.32;;;3.80;;
33654;SDS011;19997;51.274;22.506;2023-04-21T07:31:25;10.07;;;4.60;;
33654;SDS011;19997;51.274;22.506;2023-04-21T07:33:52;8.43;;;5.50;;
33654;SDS011;19997;51.274;22.506;2023-04-21T07:36:19;6.45;;;3.38;;
33654;SDS011;19997;51.274;22.506;2023-04-21T07:38:50;11.73;;;3.30;;
33654;SDS011;19997;51.274;22.506;2023-04-21T07:41:18;7.85;;;3.35;;
33654;SDS011;19997;51.274;22.506;2023-04-21T07:43:46;7.80;;;3.53;;
33654;SDS011;19997;51.274;22.506;2023-04-21T07:46:13;7.40;;;3.55;;
33654;SDS011;19997;51.274;22.506;2023-04-21T07:48:40;10.45;;;4.05;;
33654;SDS011;19997;51.274;22.506;2023-04-21T07:51:07;10.55;;;3.30;;
33654;SDS011;19997;51.274;22.506;2023-04-21T07:53:34;6.50;;;3.55;;
33654;SDS011;19997;51.274;22.506;2023-04-21T07:56:01;12.00;;;3.10;;
33654;SDS011;19997;51.274;22.506;2023-04-21T07:58:30;8.68;;;3.17;;
33654;SDS011;19997;51.274;22.506;2023-04-21T08:00:57;4.10;;;2.70;;
33654;SDS011;19997;51.274;22.506;2023-04-21T08:03:24;4.82;;;2.83;;
33654;SDS011;19997;51.274;22.506;2023-04-21T08:05:51;5.07;;;2.95;;
33654;SDS011;19997;51.274;22.506;2023-04-21T08:08:18;4.13;;;2.80;;
33654;SDS011;19997;51.274;22.506;2023-04-21T08:10:46;4.93;;;3.00;;
33654;SDS011;19997;51.274;22.506;2023-04-21T08:13:13;11.95;;;3.10;;
33654;SDS011;19997;51.274;22.506;2023-04-21T08:15:41;3.90;;;2.60;;
33654;SDS011;19997;51.274;22.506;2023-04-21T08:18:08;5.38;;;2.70;;
33654;SDS011;19997;51.274;22.506;2023-04-21T08:20:35;4.57;;;3.47;;
33654;SDS011;19997;51.274;22.506;2023-04-21T08:23:02;9.40;;;3.53;;
33654;SDS011;19997;51.274;22.506;2023-04-21T08:25:29;11.27;;;2.70;;
33654;SDS011;19997;51.274;22.506;2023-04-21T08:27:57;9.80;;;3.00;;
33654;SDS011;19997;51.274;22.506;2023-04-21T08:30:24;7.40;;;3.05;;
33654;SDS011;19997;51.274;22.506;2023-04-21T08:32:54;10.13;;;3.15;;
33654;SDS011;19997;51.274;22.506;2023-04-21T08:35:21;9.00;;;2.97;;
33654;SDS011;19997;51.274;22.506;2023-04-21T08:37:48;6.80;;;2.90;;
33654;SDS011;19997;51.274;22.506;2023-04-21T08:40:15;11.50;;;4.78;;
33654;SDS011;19997;51.274;22.506;2023-04-21T08:42:43;3.65;;;2.75;;
33654;SDS011;19997;51.274;22.506;2023-04-21T08:45:11;4.05;;;2.40;;
33654;SDS011;19997;51.274;22.506;2023-04-21T08:47:39;9.50;;;2.67;;
33654;SDS011;19997;51.274;22.506;2023-04-21T08:50:10;9.63;;;2.70;;
33654;SDS011;19997;51.274;22.506;2023-04-21T08:52:38;5.65;;;2.80;;
33654;SDS011;19997;51.274;22.506;2023-04-21T08:55:06;5.70;;;1.80;;
33654;SDS011;19997;51.274;22.506;2023-04-21T08:57:35;6.57;;;2.40;;
33654;SDS011;19997;51.274;22.506;2023-04-21T09:00:02;5.03;;;2.58;;
33654;SDS011;19997;51.274;22.506;2023-04-21T09:02:30;5.43;;;1.95;;
33654;SDS011;19997;51.274;22.506;2023-04-21T09:04:57;5.15;;;3.20;;
33654;SDS011;19997;51.274;22.506;2023-04-21T09:07:32;4.65;;;2.13;;
33654;SDS011;19997;51.274;22.506;2023-04-21T09:10:00;6.10;;;2.20;;
33654;SDS011;19997;51.274;22.506;2023-04-21T09:12:27;6.47;;;2.78;;
33654;SDS011;19997;51.274;22.506;2023-04-21T09:14:55;10.45;;;2.47;;
33654;SDS011;19997;51.274;22.506;2023-04-21T09:17:26;4.80;;;2.20;;
33654;SDS011;19997;51.274;22.506;2023-04-21T09:19:56;8.68;;;2.70;;
33654;SDS011;19997;51.274;22.506;2023-04-21T09:22:25;8.38;;;2.67;;
33654;SDS011;19997;51.274;22.506;2023-04-21T09:24:57;4.55;;;2.38;;
33654;SDS011;19997;51.274;22.506;2023-04-21T09:27:25;13.90;;;2.42;;
33654;SDS011;19997;51.274;22.506;2023-04-21T09:29:52;6.70;;;2.30;;
33654;SDS011;19997;51.274;22.506;2023-04-21T09:32:19;4.95;;;2.40;;
33654;SDS011;19997;51.274;22.506;2023-04-21T09:34:46;12.48;;;3.25;;
33654;SDS011;19997;51.274;22.506;2023-04-21T09:37:13;5.50;;;2.00;;
33654;SDS011;19997;51.274;22.506;2023-04-21T09:39:43;4.13;;;2.30;;
33654;SDS011;19997;51.274;22.506;2023-04-21T09:42:13;7.20;;;2.90;;
33654;SDS011;19997;51.274;22.506;2023-04-21T09:44:40;7.88;;;2.60;;
33654;SDS011;19997;51.274;22.506;2023-04-21T09:47:08;5.00;;;2.33;;
33654;SDS011;19997;51.274;22.506;2023-04-21T09:49:37;4.93;;;2.42;;
33654;SDS011;19997;51.274;22.506;2023-04-21T09:52:09;7.35;;;2.78;;
33654;SDS011;19997;51.274;22.506;2023-04-21T09:54:40;8.52;;;2.40;;
33654;SDS011;19997;51.274;22.506;2023-04-21T09:57:15;4.47;;;2.03;;
33654;SDS011;19997;51.274;22.506;2023-04-21T09:59:47;19.38;;;3.70;;
33654;SDS011;19997;51.274;22.506;2023-04-21T10:02:20;5.13;;;2.30;;
33654;SDS011;19997;51.274;22.506;2023-04-21T10:04:52;4.10;;;2.63;;
33654;SDS011;19997;51.274;22.506;2023-04-21T10:07:19;15.35;;;2.78;;
33654;SDS011;19997;51.274;22.506;2023-04-21T10:09:47;8.88;;;2.67;;
33654;SDS011;19997;51.274;22.506;2023-04-21T10:12:19;5.50;;;2.50;;
33654;SDS011;19997;51.274;22.506;2023-04-21T10:14:49;4.03;;;2.22;;
33654;SDS011;19997;51.274;22.506;2023-04-21T10:17:16;6.90;;;2.20;;
33654;SDS011;19997;51.274;22.506;2023-04-21T10:19:49;5.72;;;2.15;;
33654;SDS011;19997;51.274;22.506;2023-04-21T10:22:27;6.20;;;2.72;;
33654;SDS011;19997;51.274;22.506;2023-04-21T10:24:55;6.40;;;2.47;;
33654;SDS011;19997;51.274;22.506;2023-04-21T10:27:33;3.58;;;2.10;;
33654;SDS011;19997;51.274;22.506;2023-04-21T10:30:16;10.82;;;2.88;;
33654;SDS011;19997;51.274;22.506;2023-04-21T10:32:44;4.45;;;2.33;;
33654;SDS011;19997;51.274;22.506;2023-04-21T10:35:12;4.75;;;2.13;;
33654;SDS011;19997;51.274;22.506;2023-04-21T10:37:41;6.30;;;3.40;;
33654;SDS011;19997;51.274;22.506;2023-04-21T10:43:02;6.78;;;2.70;;
33654;SDS011;19997;51.274;22.506;2023-04-21T10:45:29;4.57;;;2.10;;
33654;SDS011;19997;51.274;22.506;2023-04-21T10:47:58;4.65;;;1.90;;
33654;SDS011;19997;51.274;22.506;2023-04-21T10:50:28;6.45;;;2.60;;
33654;SDS011;19997;51.274;22.506;2023-04-21T10:52:57;5.63;;;2.65;;
33654;SDS011;19997;51.274;22.506;2023-04-21T10:55:33;6.93;;;2.85;;
33654;SDS011;19997;51.274;22.506;2023-04-21T10:58:00;4.20;;;2.33;;
33654;SDS011;19997;51.274;22.506;2023-04-21T11:00:30;6.25;;;1.95;;
33654;SDS011;19997;51.274;22.506;2023-04-21T11:02:58;4.00;;;2.25;;
33654;SDS011;19997;51.274;22.506;2023-04-21T11:05:34;3.83;;;2.55;;
33654;SDS011;19997;51.274;22.506;2023-04-21T11:08:06;6.90;;;2.40;;
33654;SDS011;19997;51.274;22.506;2023-04-21T11:10:45;16.35;;;3.67;;
33654;SDS011;19997;51.274;22.506;2023-04-21T11:13:18;4.85;;;2.42;;
33654;SDS011;19997;51.274;22.506;2023-04-21T11:15:56;8.23;;;2.38;;
33654;SDS011;19997;51.274;22.506;2023-04-21T11:18:32;4.00;;;2.40;;
33654;SDS011;19997;51.274;22.506;2023-04-21T11:21:08;7.68;;;2.80;;
33654;SDS011;19997;51.274;22.506;2023-04-21T11:23:41;5.45;;;2.30;;
33654;SDS011;19997;51.274;22.506;2023-04-21T11:26:13;8.90;;;2.10;;
33654;SDS011;19997;51.274;22.506;2023-04-21T11:28:42;7.22;;;3.17;;
33654;SDS011;19997;51.274;22.506;2023-04-21T11:31:12;4.80;;;3.08;;
33654;SDS011;19997;51.274;22.506;2023-04-21T11:33:39;4.35;;;2.92;;
33654;SDS011;19997;51.274;22.506;2023-04-21T11:36:06;10.50;;;3.28;;
33654;SDS011;19997;51.274;22.506;2023-04-21T11:38:37;8.18;;;2.83;;
33654;SDS011;19997;51.274;22.506;2023-04-21T11:41:05;9.10;;;3.00;;
33654;SDS011;19997;51.274;22.506;2023-04-21T11:43:33;9.10;;;2.83;;
33654;SDS011;19997;51.274;22.506;2023-04-21T11:46:12;2.70;;;2.25;;
33654;SDS011;19997;51.274;22.506;2023-04-21T11:48:41;5.90;;;2.50;;
33654;SDS011;19997;51.274;22.506;2023-04-21T11:51:13;3.95;;;2.00;;
33654;SDS011;19997;51.274;22.506;2023-04-21T11:53:41;7.65;;;2.63;;
33654;SDS011;19997;51.274;22.506;2023-04-21T11:56:08;2.70;;;2.22;;
33654;SDS011;19997;51.274;22.506;2023-04-21T11:58:36;5.30;;;2.85;;
33654;SDS011;19997;51.274;22.506;2023-04-21T12:01:07;4.88;;;2.80;;
33654;SDS011;19997;51.274;22.506;2023-04-21T12:03:36;7.22;;;3.00;;
33654;SDS011;19997;51.274;22.506;2023-04-21T12:06:03;3.78;;;2.45;;
33654;SDS011;19997;51.274;22.506;2023-04-21T12:08:31;8.32;;;3.75;;
33654;SDS011;19997;51.274;22.506;2023-04-21T12:10:59;8.93;;;2.85;;
33654;SDS011;19997;51.274;22.506;2023-04-21T12:13:28;4.85;;;2.40;;
33654;SDS011;19997;51.274;22.506;2023-04-21T12:15:56;4.53;;;2.85;;
33654;SDS011;19997;51.274;22.506;2023-04-21T12:18:27;7.25;;;3.45;;
33654;SDS011;19997;51.274;22.506;2023-04-21T12:20:59;15.48;;;3.75;;
33654;SDS011;19997;51.274;22.506;2023-04-21T12:23:27;9.68;;;3.75;;
33654;SDS011;19997;51.274;22.506;2023-04-21T12:25:55;12.07;;;3.00;;
33654;SDS011;19997;51.274;22.506;2023-04-21T12:28:23;3.65;;;3.10;;
33654;SDS011;19997;51.274;22.506;2023-04-21T12:30:50;11.00;;;3.47;;
33654;SDS011;19997;51.274;22.506;2023-04-21T12:33:17;4.57;;;2.97;;
33654;SDS011;19997;51.274;22.506;2023-04-21T12:35:44;7.70;;;3.13;;
33654;SDS011;19997;51.274;22.506;2023-04-21T12:38:12;12.23;;;3.30;;
33654;SDS011;19997;51.274;22.506;2023-04-21T12:40:39;10.50;;;3.63;;
33654;SDS011;19997;51.274;22.506;2023-04-21T12:43:06;10.93;;;2.92;;
33654;SDS011;19997;51.274;22.506;2023-04-21T12:45:34;7.15;;;3.25;;
33654;SDS011;19997;51.274;22.506;2023-04-21T12:48:02;8.27;;;3.17;;
33654;SDS011;19997;51.274;22.506;2023-04-21T12:50:29;6.15;;;2.83;;
33654;SDS011;19997;51.274;22.506;2023-04-21T12:52:57;5.43;;;3.03;;
33654;SDS011;19997;51.274;22.506;2023-04-21T12:55:26;8.10;;;3.17;;
33654;SDS011;19997;51.274;22.506;2023-04-21T12:57:53;6.75;;;3.10;;
33654;SDS011;19997;51.274;22.506;2023-04-21T13:00:20;5.78;;;3.53;;
33654;SDS011;19997;51.274;22.506;2023-04-21T13:02:48;5.82;;;3.13;;
33654;SDS011;19997;51.274;22.506;2023-04-21T13:05:15;7.40;;;2.63;;
33654;SDS011;19997;51.274;22.506;2023-04-21T13:07:42;6.50;;;2.88;;
33654;SDS011;19997;51.274;22.506;2023-04-21T13:10:09;8.57;;;3.10;;
33654;SDS011;19997;51.274;22.506;2023-04-21T13:12:38;8.32;;;3.05;;
33654;SDS011;19997;51.274;22.506;2023-04-21T13:15:06;8.18;;;4.18;;
33654;SDS011;19997;51.274;22.506;2023-04-21T13:17:33;6.13;;;3.38;;
33654;SDS011;19997;51.274;22.506;2023-04-21T13:20:00;15.48;;;4.78;;
33654;SDS011;19997;51.274;22.506;2023-04-21T13:22:28;12.02;;;4.57;;
33654;SDS011;19997;51.274;22.506;2023-04-21T13:24:55;6.82;;;3.92;;
33654;SDS011;19997;51.274;22.506;2023-04-21T13:27:22;6.47;;;3.00;;
33654;SDS011;19997;51.274;22.506;2023-04-21T13:29:51;7.53;;;3.75;;
33654;SDS011;19997;51.274;22.506;2023-04-21T13:32:19;5.82;;;3.30;;
33654;SDS011;19997;51.274;22.506;2023-04-21T13:34:46;6.57;;;3.90;;
33654;SDS011;19997;51.274;22.506;2023-04-21T13:37:13;3.90;;;3.03;;
33654;SDS011;19997;51.274;22.506;2023-04-21T13:39:41;10.02;;;3.67;;
33654;SDS011;19997;51.274;22.506;2023-04-21T13:42:08;7.88;;;2.90;;
33654;SDS011;19997;51.274;22.506;2023-04-21T13:44:35;5.13;;;3.90;;
33654;SDS011;19997;51.274;22.506;2023-04-21T13:47:04;7.80;;;3.47;;
33654;SDS011;19997;51.274;22.506;2023-04-21T13:49:33;13.90;;;3.28;;
33654;SDS011;19997;51.274;22.506;2023-04-21T13:52:03;8.27;;;3.63;;
33654;SDS011;19997;51.274;22.506;2023-04-21T13:54:30;8.43;;;3.05;;
33654;SDS011;19997;51.274;22.506;2023-04-21T13:56:58;7.32;;;3.25;;
33654;SDS011;19997;51.274;22.506;2023-04-21T13:59:26;4.63;;;3.30;;
33654;SDS011;19997;51.274;22.506;2023-04-21T14:01:53;8.82;;;2.92;;
33654;SDS011;19997;51.274;22.506;2023-04-21T14:04:22;5.38;;;3.22;;
33654;SDS011;19997;51.274;22.506;2023-04-21T14:06:49;7.82;;;2.70;;
33654;SDS011;19997;51.274;22.506;2023-04-21T14:09:16;9.32;;;4.53;;
33654;SDS011;19997;51.274;22.506;2023-04-21T14:11:43;10.25;;;3.40;;
33654;SDS011;19997;51.274;22.506;2023-04-21T14:14:10;8.57;;;3.88;;
33654;SDS011;19997;51.274;22.506;2023-04-21T14:16:37;5.10;;;3.50;;
33654;SDS011;19997;51.274;22.506;2023-04-21T14:19:04;4.93;;;3.03;;
33654;SDS011;19997;51.274;22.506;2023-04-21T14:21:33;16.00;;;3.40;;
33654;SDS011;19997;51.274;22.506;2023-04-21T14:24:00;6.82;;;4.22;;
33654;SDS011;19997;51.274;22.506;2023-04-21T14:26:27;9.48;;;4.00;;
33654;SDS011;19997;51.274;22.506;2023-04-21T14:28:54;7.25;;;3.17;;
33654;SDS011;19997;51.274;22.506;2023-04-21T14:31:21;12.93;;;4.75;;
33654;SDS011;19997;51.274;22.506;2023-04-21T14:33:48;5.95;;;3.03;;
33654;SDS011;19997;51.274;22.506;2023-04-21T14:36:17;8.98;;;3.10;;